sensor_id;sensor_type;location;lat;lon;timestamp;temperature;humidity
45685;DHT22;46836;48.388;16.210;2024-01-16T00:02:05;1.60;99.90
45685;DHT22;46836;48.388;16.210;2024-01-16T00:04:37;1.60;99.90
45685;DHT22;46836;48.388;16.210;2024-01-16T00:07:05;1.60;99.90
45685;DHT22;46836;48.388;16.210;2024-01-16T00:09:35;1.60;99.90
45685;DHT22;46836;48.388;16.210;2024-01-16T00:12:05;1.60;99.90
45685;DHT22;46836;48.388;16.210;2024-01-16T00:14:36;1.60;99.90
45685;DHT22;46836;48.388;16.210;2024-01-16T00:17:04;1.60;99.90
45685;DHT22;46836;48.388;16.210;2024-01-16T00:19:32;1.60;99.90
45685;DHT22;46836;48.388;16.210;2024-01-16T00:21:59;1.60;99.90
45685;DHT22;46836;48.388;16.210;2024-01-16T00:24:29;1.60;99.90
45685;DHT22;46836;48.388;16.210;2024-01-16T00:26:56;1.50;99.90
45685;DHT22;46836;48.388;16.210;2024-01-16T00:29:23;1.50;99.90
45685;DHT22;46836;48.388;16.210;2024-01-16T00:31:50;1.40;99.90
45685;DHT22;46836;48.388;16.210;2024-01-16T00:34:17;1.40;99.90
45685;DHT22;46836;48.388;16.210;2024-01-16T00:36:44;1.30;99.90
45685;DHT22;46836;48.388;16.210;2024-01-16T00:39:11;1.30;99.90
45685;DHT22;46836;48.388;16.210;2024-01-16T00:41:40;1.30;99.90
45685;DHT22;46836;48.388;16.210;2024-01-16T00:44:07;1.30;99.90
45685;DHT22;46836;48.388;16.210;2024-01-16T00:46:34;1.30;99.90
45685;DHT22;46836;48.388;16.210;2024-01-16T00:49:01;1.20;99.90
45685;DHT22;46836;48.388;16.210;2024-01-16T00:51:29;1.20;99.90
45685;DHT22;46836;48.388;16.210;2024-01-16T00:53:56;1.20;99.90
45685;DHT22;46836;48.388;16.210;2024-01-16T00:56:23;1.20;99.90
45685;DHT22;46836;48.388;16.210;2024-01-16T00:58:50;1.10;99.90
45685;DHT22;46836;48.388;16.210;2024-01-16T01:01:17;1.10;99.90
45685;DHT22;46836;48.388;16.210;2024-01-16T01:03:44;1.10;99.90
45685;DHT22;46836;48.388;16.210;2024-01-16T01:06:12;1.00;99.90
45685;DHT22;46836;48.388;16.210;2024-01-16T01:08:39;1.10;99.90
45685;DHT22;46836;48.388;16.210;2024-01-16T01:11:06;1.00;99.90
45685;DHT22;46836;48.388;16.210;2024-01-16T01:13:33;1.00;99.90
45685;DHT22;46836;48.388;16.210;2024-01-16T01:16:00;1.00;99.90
45685;DHT22;46836;48.388;16.210;2024-01-16T01:18:27;1.00;99.90
45685;DHT22;46836;48.388;16.210;2024-01-16T01:20:54;1.00;99.90
45685;DHT22;46836;48.388;16.210;2024-01-16T01:23:22;1.00;99.90
45685;DHT22;46836;48.388;16.210;2024-01-16T01:25:49;0.90;99.90
45685;DHT22;46836;48.388;16.210;2024-01-16T01:28:16;0.90;99.90
45685;DHT22;46836;48.388;16.210;2024-01-16T01:30:43;0.90;99.90
45685;DHT22;46836;48.388;16.210;2024-01-16T01:33:10;0.90;99.90
45685;DHT22;46836;48.388;16.210;2024-01-16T01:35:39;0.90;99.90
45685;DHT22;46836;48.388;16.210;2024-01-16T01:38:06;0.90;99.90
45685;DHT22;46836;48.388;16.210;2024-01-16T01:40:35;0.90;99.90
45685;DHT22;46836;48.388;16.210;2024-01-16T01:43:21;0.90;99.90
45685;DHT22;46836;48.388;16.210;2024-01-16T01:48:23;0.90;99.90
45685;DHT22;46836;48.388;16.210;2024-01-16T01:50:50;0.90;99.90
45685;DHT22;46836;48.388;16.210;2024-01-16T01:53:18;0.90;99.90
45685;DHT22;46836;48.388;16.210;2024-01-16T01:55:45;0.90;99.90
45685;DHT22;46836;48.388;16.210;2024-01-16T01:58:13;1.00;99.90
45685;DHT22;46836;48.388;16.210;2024-01-16T02:00:40;1.00;99.90
45685;DHT22;46836;48.388;16.210;2024-01-16T02:03:07;1.00;99.90
45685;DHT22;46836;48.388;16.210;2024-01-16T02:05:35;1.10;99.90
45685;DHT22;46836;48.388;16.210;2024-01-16T02:08:02;1.10;99.90
45685;DHT22;46836;48.388;16.210;2024-01-16T02:10:30;1.20;99.90
45685;DHT22;46836;48.388;16.210;2024-01-16T02:12:58;1.30;99.90
45685;DHT22;46836;48.388;16.210;2024-01-16T02:15:25;1.40;99.90
45685;DHT22;46836;48.388;16.210;2024-01-16T02:17:52;1.40;99.90
45685;DHT22;46836;48.388;16.210;2024-01-16T02:20:19;1.40;99.90
45685;DHT22;46836;48.388;16.210;2024-01-16T02:22:48;1.50;99.90
45685;DHT22;46836;48.388;16.210;2024-01-16T02:25:17;1.50;99.90
45685;DHT22;46836;48.388;16.210;2024-01-16T02:27:46;1.60;99.90
45685;DHT22;46836;48.388;16.210;2024-01-16T02:30:14;1.60;99.90
45685;DHT22;46836;48.388;16.210;2024-01-16T02:32:41;1.60;99.90
45685;DHT22;46836;48.388;16.210;2024-01-16T02:35:08;1.60;99.90
45685;DHT22;46836;48.388;16.210;2024-01-16T02:37:36;1.70;99.90
45685;DHT22;46836;48.388;16.210;2024-01-16T02:40:04;1.70;99.90
45685;DHT22;46836;48.388;16.210;2024-01-16T02:42:33;1.70;99.90
45685;DHT22;46836;48.388;16.210;2024-01-16T02:45:00;1.70;99.90
45685;DHT22;46836;48.388;16.210;2024-01-16T02:47:27;1.70;99.90
45685;DHT22;46836;48.388;16.210;2024-01-16T02:49:54;1.70;99.90
45685;DHT22;46836;48.388;16.210;2024-01-16T02:52:21;1.60;99.90
45685;DHT22;46836;48.388;16.210;2024-01-16T02:54:48;1.60;99.90
45685;DHT22;46836;48.388;16.210;2024-01-16T02:57:15;1.60;99.90
45685;DHT22;46836;48.388;16.210;2024-01-16T02:59:46;1.60;99.90
45685;DHT22;46836;48.388;16.210;2024-01-16T03:02:13;1.50;99.90
45685;DHT22;46836;48.388;16.210;2024-01-16T03:04:41;1.40;99.90
45685;DHT22;46836;48.388;16.210;2024-01-16T03:07:08;1.40;99.90
45685;DHT22;46836;48.388;16.210;2024-01-16T03:09:35;1.30;99.90
45685;DHT22;46836;48.388;16.210;2024-01-16T03:12:03;1.20;99.90
45685;DHT22;46836;48.388;16.210;2024-01-16T03:14:30;1.20;99.90
45685;DHT22;46836;48.388;16.210;2024-01-16T03:17:02;1.20;99.90
45685;DHT22;46836;48.388;16.210;2024-01-16T03:19:29;1.20;99.90
45685;DHT22;46836;48.388;16.210;2024-01-16T03:21:56;1.20;99.90
45685;DHT22;46836;48.388;16.210;2024-01-16T03:24:23;1.20;99.90
45685;DHT22;46836;48.388;16.210;2024-01-16T03:26:50;1.20;99.90
45685;DHT22;46836;48.388;16.210;2024-01-16T03:29:17;1.20;99.90
45685;DHT22;46836;48.388;16.210;2024-01-16T03:31:45;1.20;99.90
45685;DHT22;46836;48.388;16.210;2024-01-16T03:34:12;1.20;99.90
45685;DHT22;46836;48.388;16.210;2024-01-16T03:36:39;1.20;99.90
45685;DHT22;46836;48.388;16.210;2024-01-16T03:39:06;1.20;99.90
45685;DHT22;46836;48.388;16.210;2024-01-16T03:41:33;1.20;99.90
45685;DHT22;46836;48.388;16.210;2024-01-16T03:44:00;1.10;99.90
45685;DHT22;46836;48.388;16.210;2024-01-16T03:46:27;1.10;99.90
45685;DHT22;46836;48.388;16.210;2024-01-16T03:48:54;1.10;99.90
45685;DHT22;46836;48.388;16.210;2024-01-16T03:51:22;1.10;99.90
45685;DHT22;46836;48.388;16.210;2024-01-16T03:53:49;1.10;99.90
45685;DHT22;46836;48.388;16.210;2024-01-16T03:56:16;1.00;99.90
45685;DHT22;46836;48.388;16.210;2024-01-16T03:58:43;1.00;99.90
45685;DHT22;46836;48.388;16.210;2024-01-16T04:01:10;1.00;99.90
45685;DHT22;46836;48.388;16.210;2024-01-16T04:03:40;1.00;99.90
45685;DHT22;46836;48.388;16.210;2024-01-16T04:06:17;1.00;99.90
45685;DHT22;46836;48.388;16.210;2024-01-16T04:08:45;1.10;99.90
45685;DHT22;46836;48.388;16.210;2024-01-16T04:11:13;1.20;99.90
45685;DHT22;46836;48.388;16.210;2024-01-16T04:13:41;1.20;99.90
45685;DHT22;46836;48.388;16.210;2024-01-16T04:16:08;1.20;99.90
45685;DHT22;46836;48.388;16.210;2024-01-16T04:18:40;1.20;99.90
45685;DHT22;46836;48.388;16.210;2024-01-16T04:21:07;1.20;99.90
45685;DHT22;46836;48.388;16.210;2024-01-16T04:23:34;1.20;99.90
45685;DHT22;46836;48.388;16.210;2024-01-16T04:26:01;1.30;99.90
45685;DHT22;46836;48.388;16.210;2024-01-16T04:28:28;1.30;99.90
45685;DHT22;46836;48.388;16.210;2024-01-16T04:30:55;1.30;99.90
45685;DHT22;46836;48.388;16.210;2024-01-16T04:33:23;1.30;99.90
45685;DHT22;46836;48.388;16.210;2024-01-16T04:35:50;1.30;99.90
45685;DHT22;46836;48.388;16.210;2024-01-16T04:38:17;1.30;99.90
45685;DHT22;46836;48.388;16.210;2024-01-16T04:40:44;1.30;99.90
45685;DHT22;46836;48.388;16.210;2024-01-16T04:43:11;1.30;99.90
45685;DHT22;46836;48.388;16.210;2024-01-16T04:45:38;1.30;99.90
45685;DHT22;46836;48.388;16.210;2024-01-16T04:48:06;1.40;99.90
45685;DHT22;46836;48.388;16.210;2024-01-16T04:50:34;1.30;99.90
45685;DHT22;46836;48.388;16.210;2024-01-16T04:53:01;1.30;99.90
45685;DHT22;46836;48.388;16.210;2024-01-16T04:55:29;1.30;99.90
45685;DHT22;46836;48.388;16.210;2024-01-16T04:57:57;1.30;99.90
45685;DHT22;46836;48.388;16.210;2024-01-16T05:00:24;1.30;99.90
45685;DHT22;46836;48.388;16.210;2024-01-16T05:02:53;1.30;99.90
45685;DHT22;46836;48.388;16.210;2024-01-16T05:05:20;1.40;99.90
45685;DHT22;46836;48.388;16.210;2024-01-16T05:07:47;1.40;99.90
45685;DHT22;46836;48.388;16.210;2024-01-16T05:10:14;1.40;99.90
45685;DHT22;46836;48.388;16.210;2024-01-16T05:12:42;1.40;99.90
45685;DHT22;46836;48.388;16.210;2024-01-16T05:15:09;1.40;99.90
45685;DHT22;46836;48.388;16.210;2024-01-16T05:17:38;1.40;99.90
45685;DHT22;46836;48.388;16.210;2024-01-16T05:20:06;1.40;99.90
45685;DHT22;46836;48.388;16.210;2024-01-16T05:22:33;1.40;99.90
45685;DHT22;46836;48.388;16.210;2024-01-16T05:25:00;1.40;99.90
45685;DHT22;46836;48.388;16.210;2024-01-16T05:27:27;1.40;99.90
45685;DHT22;46836;48.388;16.210;2024-01-16T05:29:55;1.40;99.90
45685;DHT22;46836;48.388;16.210;2024-01-16T05:32:22;1.40;99.90
45685;DHT22;46836;48.388;16.210;2024-01-16T05:34:49;1.40;99.90
45685;DHT22;46836;48.388;16.210;2024-01-16T05:37:16;1.40;99.90
45685;DHT22;46836;48.388;16.210;2024-01-16T05:39:43;1.40;99.90
45685;DHT22;46836;48.388;16.210;2024-01-16T05:42:11;1.40;99.90
45685;DHT22;46836;48.388;16.210;2024-01-16T05:44:38;1.40;99.90
45685;DHT22;46836;48.388;16.210;2024-01-16T05:47:05;1.40;99.90
45685;DHT22;46836;48.388;16.210;2024-01-16T05:49:32;1.40;99.90
45685;DHT22;46836;48.388;16.210;2024-01-16T05:52:00;1.40;99.90
45685;DHT22;46836;48.388;16.210;2024-01-16T05:54:28;1.40;99.90
45685;DHT22;46836;48.388;16.210;2024-01-16T05:56:55;1.40;99.90
45685;DHT22;46836;48.388;16.210;2024-01-16T05:59:22;1.30;99.90
45685;DHT22;46836;48.388;16.210;2024-01-16T06:01:49;1.30;99.90
45685;DHT22;46836;48.388;16.210;2024-01-16T06:04:17;1.30;99.90
45685;DHT22;46836;48.388;16.210;2024-01-16T06:06:44;1.30;99.90
45685;DHT22;46836;48.388;16.210;2024-01-16T06:09:12;1.20;99.90
45685;DHT22;46836;48.388;16.210;2024-01-16T06:11:41;1.20;99.90
45685;DHT22;46836;48.388;16.210;2024-01-16T06:14:08;1.20;99.90
45685;DHT22;46836;48.388;16.210;2024-01-16T06:16:36;1.20;99.90
45685;DHT22;46836;48.388;16.210;2024-01-16T06:19:03;1.20;99.90
45685;DHT22;46836;48.388;16.210;2024-01-16T06:21:31;1.20;99.90
45685;DHT22;46836;48.388;16.210;2024-01-16T06:23:58;1.20;99.90
45685;DHT22;46836;48.388;16.210;2024-01-16T06:26:26;1.20;99.90
45685;DHT22;46836;48.388;16.210;2024-01-16T06:28:53;1.20;99.90
45685;DHT22;46836;48.388;16.210;2024-01-16T06:31:20;1.30;99.90
45685;DHT22;46836;48.388;16.210;2024-01-16T06:33:47;1.30;99.90
45685;DHT22;46836;48.388;16.210;2024-01-16T06:36:14;1.30;99.90
45685;DHT22;46836;48.388;16.210;2024-01-16T06:38:41;1.40;99.90
45685;DHT22;46836;48.388;16.210;2024-01-16T06:41:09;1.30;99.90
45685;DHT22;46836;48.388;16.210;2024-01-16T06:43:36;1.30;99.90
45685;DHT22;46836;48.388;16.210;2024-01-16T06:46:03;1.30;99.90
45685;DHT22;46836;48.388;16.210;2024-01-16T06:48:31;1.30;99.90
45685;DHT22;46836;48.388;16.210;2024-01-16T06:50:59;1.20;99.90
45685;DHT22;46836;48.388;16.210;2024-01-16T06:53:28;1.20;99.90
45685;DHT22;46836;48.388;16.210;2024-01-16T06:55:55;1.20;99.90
45685;DHT22;46836;48.388;16.210;2024-01-16T06:58:22;1.20;99.90
45685;DHT22;46836;48.388;16.210;2024-01-16T07:00:49;1.20;99.90
45685;DHT22;46836;48.388;16.210;2024-01-16T07:03:16;1.20;99.90
45685;DHT22;46836;48.388;16.210;2024-01-16T07:05:45;1.30;99.90
45685;DHT22;46836;48.388;16.210;2024-01-16T07:08:12;1.30;99.90
45685;DHT22;46836;48.388;16.210;2024-01-16T07:10:39;1.30;99.90
45685;DHT22;46836;48.388;16.210;2024-01-16T07:13:06;1.40;99.90
45685;DHT22;46836;48.388;16.210;2024-01-16T07:15:34;1.40;99.90
45685;DHT22;46836;48.388;16.210;2024-01-16T07:18:01;1.50;99.90
45685;DHT22;46836;48.388;16.210;2024-01-16T07:20:29;1.60;99.90
45685;DHT22;46836;48.388;16.210;2024-01-16T07:22:56;1.60;99.90
45685;DHT22;46836;48.388;16.210;2024-01-16T07:25:23;1.60;99.90
45685;DHT22;46836;48.388;16.210;2024-01-16T07:27:50;1.70;99.90
45685;DHT22;46836;48.388;16.210;2024-01-16T07:30:17;1.70;99.90
45685;DHT22;46836;48.388;16.210;2024-01-16T07:32:44;1.70;99.90
45685;DHT22;46836;48.388;16.210;2024-01-16T07:35:12;1.80;99.90
45685;DHT22;46836;48.388;16.210;2024-01-16T07:37:40;1.80;99.90
45685;DHT22;46836;48.388;16.210;2024-01-16T07:40:08;1.80;99.90
45685;DHT22;46836;48.388;16.210;2024-01-16T07:42:36;1.80;99.90
45685;DHT22;46836;48.388;16.210;2024-01-16T07:45:04;1.80;99.90
45685;DHT22;46836;48.388;16.210;2024-01-16T07:47:32;1.90;99.90
45685;DHT22;46836;48.388;16.210;2024-01-16T07:50:00;2.00;99.90
45685;DHT22;46836;48.388;16.210;2024-01-16T07:52:30;2.10;99.90
45685;DHT22;46836;48.388;16.210;2024-01-16T07:54:57;2.10;99.90
45685;DHT22;46836;48.388;16.210;2024-01-16T07:57:25;2.20;99.90
45685;DHT22;46836;48.388;16.210;2024-01-16T07:59:52;2.20;99.90
45685;DHT22;46836;48.388;16.210;2024-01-16T08:02:19;2.20;99.90
45685;DHT22;46836;48.388;16.210;2024-01-16T08:04:50;2.10;99.90
45685;DHT22;46836;48.388;16.210;2024-01-16T08:07:17;2.10;99.90
45685;DHT22;46836;48.388;16.210;2024-01-16T08:09:44;2.10;99.90
45685;DHT22;46836;48.388;16.210;2024-01-16T08:12:12;2.10;99.90
45685;DHT22;46836;48.388;16.210;2024-01-16T08:14:39;2.10;99.90
45685;DHT22;46836;48.388;16.210;2024-01-16T08:17:06;2.10;99.90
45685;DHT22;46836;48.388;16.210;2024-01-16T08:19:34;2.20;99.90
45685;DHT22;46836;48.388;16.210;2024-01-16T08:22:01;2.10;99.90
45685;DHT22;46836;48.388;16.210;2024-01-16T08:24:32;2.20;99.90
45685;DHT22;46836;48.388;16.210;2024-01-16T08:26:59;2.20;99.90
45685;DHT22;46836;48.388;16.210;2024-01-16T08:29:26;2.10;99.90
45685;DHT22;46836;48.388;16.210;2024-01-16T08:31:54;2.20;99.90
45685;DHT22;46836;48.388;16.210;2024-01-16T08:34:21;2.20;99.90
45685;DHT22;46836;48.388;16.210;2024-01-16T08:36:48;2.20;99.90
45685;DHT22;46836;48.388;16.210;2024-01-16T08:39:15;2.30;99.90
45685;DHT22;46836;48.388;16.210;2024-01-16T08:41:43;2.40;99.90
45685;DHT22;46836;48.388;16.210;2024-01-16T08:44:12;2.50;99.90
45685;DHT22;46836;48.388;16.210;2024-01-16T08:46:40;2.60;99.90
45685;DHT22;46836;48.388;16.210;2024-01-16T08:49:07;2.60;99.90
45685;DHT22;46836;48.388;16.210;2024-01-16T08:51:36;2.60;99.90
45685;DHT22;46836;48.388;16.210;2024-01-16T08:54:03;2.60;99.90
45685;DHT22;46836;48.388;16.210;2024-01-16T08:56:30;2.70;99.90
45685;DHT22;46836;48.388;16.210;2024-01-16T08:58:57;2.70;99.90
45685;DHT22;46836;48.388;16.210;2024-01-16T09:01:24;2.70;99.90
45685;DHT22;46836;48.388;16.210;2024-01-16T09:03:51;2.80;99.90
45685;DHT22;46836;48.388;16.210;2024-01-16T09:06:19;2.80;99.90
45685;DHT22;46836;48.388;16.210;2024-01-16T09:08:46;2.80;99.90
45685;DHT22;46836;48.388;16.210;2024-01-16T09:11:13;2.90;99.90
45685;DHT22;46836;48.388;16.210;2024-01-16T09:13:40;2.90;99.90
45685;DHT22;46836;48.388;16.210;2024-01-16T09:16:08;2.90;99.90
45685;DHT22;46836;48.388;16.210;2024-01-16T09:18:35;2.90;99.90
45685;DHT22;46836;48.388;16.210;2024-01-16T09:21:03;2.90;99.90
45685;DHT22;46836;48.388;16.210;2024-01-16T09:23:30;2.90;99.90
45685;DHT22;46836;48.388;16.210;2024-01-16T09:25:57;2.90;99.90
45685;DHT22;46836;48.388;16.210;2024-01-16T09:28:24;2.80;99.90
45685;DHT22;46836;48.388;16.210;2024-01-16T09:30:51;2.80;99.90
45685;DHT22;46836;48.388;16.210;2024-01-16T09:33:19;2.80;99.90
45685;DHT22;46836;48.388;16.210;2024-01-16T09:35:46;3.00;99.90
45685;DHT22;46836;48.388;16.210;2024-01-16T09:38:15;3.10;99.90
45685;DHT22;46836;48.388;16.210;2024-01-16T09:40:42;3.20;99.90
45685;DHT22;46836;48.388;16.210;2024-01-16T09:43:09;3.30;99.90
45685;DHT22;46836;48.388;16.210;2024-01-16T09:45:38;3.50;99.90
45685;DHT22;46836;48.388;16.210;2024-01-16T09:48:07;3.60;99.90
45685;DHT22;46836;48.388;16.210;2024-01-16T09:50:35;3.60;99.90
45685;DHT22;46836;48.388;16.210;2024-01-16T09:53:02;3.70;99.90
45685;DHT22;46836;48.388;16.210;2024-01-16T09:55:29;3.80;99.90
45685;DHT22;46836;48.388;16.210;2024-01-16T09:57:57;3.80;99.90
45685;DHT22;46836;48.388;16.210;2024-01-16T10:00:26;3.90;99.90
45685;DHT22;46836;48.388;16.210;2024-01-16T10:02:54;4.00;99.90
45685;DHT22;46836;48.388;16.210;2024-01-16T10:05:26;4.00;99.90
45685;DHT22;46836;48.388;16.210;2024-01-16T10:07:54;4.10;99.90
45685;DHT22;46836;48.388;16.210;2024-01-16T10:10:21;4.00;99.90
45685;DHT22;46836;48.388;16.210;2024-01-16T10:13:04;4.10;99.90
45685;DHT22;46836;48.388;16.210;2024-01-16T10:15:31;4.10;99.90
45685;DHT22;46836;48.388;16.210;2024-01-16T10:17:59;4.20;99.90
45685;DHT22;46836;48.388;16.210;2024-01-16T10:20:34;4.20;99.90
45685;DHT22;46836;48.388;16.210;2024-01-16T10:23:02;4.40;99.90
45685;DHT22;46836;48.388;16.210;2024-01-16T10:25:30;4.40;99.90
45685;DHT22;46836;48.388;16.210;2024-01-16T10:28:03;4.50;99.90
45685;DHT22;46836;48.388;16.210;2024-01-16T10:30:32;4.50;99.90
45685;DHT22;46836;48.388;16.210;2024-01-16T10:33:13;4.60;99.90
45685;DHT22;46836;48.388;16.210;2024-01-16T10:35:42;4.50;99.90
45685;DHT22;46836;48.388;16.210;2024-01-16T10:38:09;4.60;99.90
45685;DHT22;46836;48.388;16.210;2024-01-16T10:40:36;4.70;99.90
45685;DHT22;46836;48.388;16.210;2024-01-16T10:43:04;4.80;99.90
45685;DHT22;46836;48.388;16.210;2024-01-16T10:45:32;4.80;99.90
45685;DHT22;46836;48.388;16.210;2024-01-16T10:48:07;4.80;99.90
45685;DHT22;46836;48.388;16.210;2024-01-16T10:50:38;4.80;99.90
45685;DHT22;46836;48.388;16.210;2024-01-16T10:53:07;4.80;99.90
45685;DHT22;46836;48.388;16.210;2024-01-16T10:55:43;5.00;99.90
45685;DHT22;46836;48.388;16.210;2024-01-16T10:58:13;5.10;99.90
45685;DHT22;46836;48.388;16.210;2024-01-16T11:00:42;5.30;99.90
45685;DHT22;46836;48.388;16.210;2024-01-16T11:03:19;5.30;99.90
45685;DHT22;46836;48.388;16.210;2024-01-16T11:05:50;5.40;99.90
45685;DHT22;46836;48.388;16.210;2024-01-16T11:08:18;5.30;99.90
45685;DHT22;46836;48.388;16.210;2024-01-16T11:10:46;5.40;99.90
45685;DHT22;46836;48.388;16.210;2024-01-16T11:13:14;5.40;99.90
45685;DHT22;46836;48.388;16.210;2024-01-16T11:15:42;5.40;99.90
45685;DHT22;46836;48.388;16.210;2024-01-16T11:18:10;5.40;99.90
45685;DHT22;46836;48.388;16.210;2024-01-16T11:20:39;5.60;99.90
45685;DHT22;46836;48.388;16.210;2024-01-16T11:23:13;5.40;99.90
45685;DHT22;46836;48.388;16.210;2024-01-16T11:25:41;5.40;99.90
45685;DHT22;46836;48.388;16.210;2024-01-16T11:28:13;5.40;99.90
45685;DHT22;46836;48.388;16.210;2024-01-16T11:30:41;5.40;99.90
45685;DHT22;46836;48.388;16.210;2024-01-16T11:35:59;5.40;99.40
45685;DHT22;46836;48.388;16.210;2024-01-16T11:38:27;5.40;99.90
45685;DHT22;46836;48.388;16.210;2024-01-16T11:40:56;5.30;99.90
45685;DHT22;46836;48.388;16.210;2024-01-16T11:46:00;5.20;99.90
45685;DHT22;46836;48.388;16.210;2024-01-16T11:48:28;5.20;99.90
45685;DHT22;46836;48.388;16.210;2024-01-16T11:50:55;5.20;99.90
45685;DHT22;46836;48.388;16.210;2024-01-16T11:53:36;5.20;99.90
45685;DHT22;46836;48.388;16.210;2024-01-16T11:59:40;5.10;99.90
45685;DHT22;46836;48.388;16.210;2024-01-16T12:02:20;5.20;99.60
45685;DHT22;46836;48.388;16.210;2024-01-16T12:04:57;5.20;99.20
45685;DHT22;46836;48.388;16.210;2024-01-16T12:07:45;5.30;99.90
45685;DHT22;46836;48.388;16.210;2024-01-16T12:10:13;5.30;99.30
45685;DHT22;46836;48.388;16.210;2024-01-16T12:12:40;5.20;99.80
45685;DHT22;46836;48.388;16.210;2024-01-16T12:15:13;5.10;99.90
45685;DHT22;46836;48.388;16.210;2024-01-16T12:17:56;5.10;99.90
45685;DHT22;46836;48.388;16.210;2024-01-16T12:20:26;5.10;99.90
45685;DHT22;46836;48.388;16.210;2024-01-16T12:23:00;5.10;99.90
45685;DHT22;46836;48.388;16.210;2024-01-16T12:25:28;5.10;99.90
45685;DHT22;46836;48.388;16.210;2024-01-16T12:28:16;5.10;99.90
45685;DHT22;46836;48.388;16.210;2024-01-16T12:30:58;5.10;99.90
45685;DHT22;46836;48.388;16.210;2024-01-16T12:33:27;5.20;99.90
45685;DHT22;46836;48.388;16.210;2024-01-16T12:36:03;5.20;99.90
45685;DHT22;46836;48.388;16.210;2024-01-16T12:38:32;5.30;99.90
45685;DHT22;46836;48.388;16.210;2024-01-16T12:41:00;5.30;99.90
45685;DHT22;46836;48.388;16.210;2024-01-16T12:43:31;5.30;99.90
45685;DHT22;46836;48.388;16.210;2024-01-16T12:45:59;5.30;99.90
45685;DHT22;46836;48.388;16.210;2024-01-16T12:48:26;5.30;99.90
45685;DHT22;46836;48.388;16.210;2024-01-16T12:51:03;5.20;99.90
45685;DHT22;46836;48.388;16.210;2024-01-16T12:53:32;5.10;99.90
45685;DHT22;46836;48.388;16.210;2024-01-16T12:56:02;5.10;99.90
45685;DHT22;46836;48.388;16.210;2024-01-16T12:58:36;5.00;99.90
45685;DHT22;46836;48.388;16.210;2024-01-16T13:01:26;4.90;99.90
45685;DHT22;46836;48.388;16.210;2024-01-16T13:04:06;4.90;99.90
45685;DHT22;46836;48.388;16.210;2024-01-16T13:06:33;4.80;99.90
45685;DHT22;46836;48.388;16.210;2024-01-16T13:09:09;4.80;99.90
45685;DHT22;46836;48.388;16.210;2024-01-16T13:11:56;4.80;99.90
45685;DHT22;46836;48.388;16.210;2024-01-16T13:14:25;4.70;99.90
45685;DHT22;46836;48.388;16.210;2024-01-16T13:16:53;4.80;99.90
45685;DHT22;46836;48.388;16.210;2024-01-16T13:19:23;4.70;99.90
45685;DHT22;46836;48.388;16.210;2024-01-16T13:21:52;4.60;99.90
45685;DHT22;46836;48.388;16.210;2024-01-16T13:24:21;4.50;99.90
45685;DHT22;46836;48.388;16.210;2024-01-16T13:26:51;4.50;99.90
45685;DHT22;46836;48.388;16.210;2024-01-16T13:29:19;4.50;99.90
45685;DHT22;46836;48.388;16.210;2024-01-16T13:31:46;4.50;99.90
45685;DHT22;46836;48.388;16.210;2024-01-16T13:34:15;4.60;99.90
45685;DHT22;46836;48.388;16.210;2024-01-16T13:36:45;4.60;99.90
45685;DHT22;46836;48.388;16.210;2024-01-16T13:39:32;4.60;99.90
45685;DHT22;46836;48.388;16.210;2024-01-16T13:42:04;4.60;99.90
45685;DHT22;46836;48.388;16.210;2024-01-16T13:44:33;4.70;99.90
45685;DHT22;46836;48.388;16.210;2024-01-16T13:47:00;4.70;99.90
45685;DHT22;46836;48.388;16.210;2024-01-16T13:49:37;4.70;99.90
45685;DHT22;46836;48.388;16.210;2024-01-16T13:52:04;4.80;99.90
45685;DHT22;46836;48.388;16.210;2024-01-16T13:54:31;4.80;99.90
45685;DHT22;46836;48.388;16.210;2024-01-16T13:56:58;4.80;99.90
45685;DHT22;46836;48.388;16.210;2024-01-16T13:59:34;4.80;99.90
45685;DHT22;46836;48.388;16.210;2024-01-16T14:02:03;4.90;99.90
45685;DHT22;46836;48.388;16.210;2024-01-16T14:04:32;4.80;99.90
45685;DHT22;46836;48.388;16.210;2024-01-16T14:06:59;4.80;99.90
45685;DHT22;46836;48.388;16.210;2024-01-16T14:09:40;4.80;99.90
45685;DHT22;46836;48.388;16.210;2024-01-16T14:12:12;4.80;99.90
45685;DHT22;46836;48.388;16.210;2024-01-16T14:14:41;4.80;99.90
45685;DHT22;46836;48.388;16.210;2024-01-16T14:17:09;4.80;99.90
45685;DHT22;46836;48.388;16.210;2024-01-16T14:19:37;4.80;99.90
45685;DHT22;46836;48.388;16.210;2024-01-16T14:22:05;4.70;99.90
45685;DHT22;46836;48.388;16.210;2024-01-16T14:24:32;4.70;99.90
45685;DHT22;46836;48.388;16.210;2024-01-16T14:26:59;4.60;99.90
45685;DHT22;46836;48.388;16.210;2024-01-16T14:29:27;4.50;99.90
45685;DHT22;46836;48.388;16.210;2024-01-16T14:31:56;4.60;99.90
45685;DHT22;46836;48.388;16.210;2024-01-16T14:34:25;4.50;99.90
45685;DHT22;46836;48.388;16.210;2024-01-16T14:36:53;4.50;99.90
45685;DHT22;46836;48.388;16.210;2024-01-16T14:39:21;4.40;99.90
45685;DHT22;46836;48.388;16.210;2024-01-16T14:41:58;4.40;99.90
45685;DHT22;46836;48.388;16.210;2024-01-16T14:44:25;4.40;99.90
45685;DHT22;46836;48.388;16.210;2024-01-16T14:46:52;4.40;99.90
45685;DHT22;46836;48.388;16.210;2024-01-16T14:49:21;4.40;99.90
45685;DHT22;46836;48.388;16.210;2024-01-16T14:51:49;4.30;99.90
45685;DHT22;46836;48.388;16.210;2024-01-16T14:54:18;4.30;99.90
45685;DHT22;46836;48.388;16.210;2024-01-16T14:56:45;4.20;99.90
45685;DHT22;46836;48.388;16.210;2024-01-16T14:59:12;4.20;99.90
45685;DHT22;46836;48.388;16.210;2024-01-16T15:01:43;4.20;99.90
45685;DHT22;46836;48.388;16.210;2024-01-16T15:04:11;4.20;99.90
45685;DHT22;46836;48.388;16.210;2024-01-16T15:06:39;4.10;99.90
45685;DHT22;46836;48.388;16.210;2024-01-16T15:09:06;4.10;99.90
45685;DHT22;46836;48.388;16.210;2024-01-16T15:11:37;4.10;99.90
45685;DHT22;46836;48.388;16.210;2024-01-16T15:14:04;4.00;99.90
45685;DHT22;46836;48.388;16.210;2024-01-16T15:16:31;4.00;99.90
45685;DHT22;46836;48.388;16.210;2024-01-16T15:18:58;3.90;99.90
45685;DHT22;46836;48.388;16.210;2024-01-16T15:21:26;3.90;99.90
45685;DHT22;46836;48.388;16.210;2024-01-16T15:23:53;3.80;99.90
45685;DHT22;46836;48.388;16.210;2024-01-16T15:26:20;3.80;99.90
45685;DHT22;46836;48.388;16.210;2024-01-16T15:28:49;3.70;99.90
45685;DHT22;46836;48.388;16.210;2024-01-16T15:31:16;3.70;99.90
45685;DHT22;46836;48.388;16.210;2024-01-16T15:33:45;3.70;99.90
45685;DHT22;46836;48.388;16.210;2024-01-16T15:36:12;3.60;99.90
45685;DHT22;46836;48.388;16.210;2024-01-16T15:38:39;3.60;99.90
45685;DHT22;46836;48.388;16.210;2024-01-16T15:41:07;3.60;99.90
45685;DHT22;46836;48.388;16.210;2024-01-16T15:43:34;3.60;99.90
45685;DHT22;46836;48.388;16.210;2024-01-16T15:46:02;3.50;99.90
45685;DHT22;46836;48.388;16.210;2024-01-16T15:48:29;3.50;99.90
45685;DHT22;46836;48.388;16.210;2024-01-16T15:51:01;3.50;99.90